Adrian, OR

3:10 AM MST on December 11, 2016 (GMT -0700)
Owyhee Junction | | Change Station
Active Advisory: Dense Fog Advisory

Elev 2210 ft 43.79 °N, 117.10 °W | Updated 9 minutes ago

Fog
Fog
27.7 °F
Feels Like 28 °F
N
0.0
Wind Variable Wind from NW

Today
High -- | Low -- °F
--% Chance of Precip.
Yesterday
High -- | Low -- °F
Precip. -- in
Pressure 30.17 in
Visibility 0.2 miles
Clouds
Windchill 28 °F
Dew Point 27 °F
Humidity 95%
Rainfall 0.00 in
Snow Depth Not available.
8:12 AM 5:11 PM
Waxing Gibbous, 90% visible
METAR KONO 110953Z AUTO 13004KT 1/4SM FZFG VV002 M02/M02 A3010 RMK AO2 SLP214 I1001 T10171022 $
Pressure 30.17 in
Visibility 0.2 miles
Clouds
Windchill 28 °F
Dew Point 27 °F
Humidity 95%
Rainfall 0.00 in
Snow Depth Not available.
8:12 AM 5:11 PM
Waxing Gibbous, 90% visible
METAR KONO 110953Z AUTO 13004KT 1/4SM FZFG VV002 M02/M02 A3010 RMK AO2 SLP214 I1001 T10171022 $

10-Day Weather Forecast

Almanac

Astronomy

Dec. 11, 2016 Rise Set
Actual Time
Civil Twilight
Nautical Twilight
Astronomical Twilight
Moon
Length of Visible Light
Length of Day
Tomorrow will be .
, % of the Moon is Illuminated

Today's Extremes

State Highs State Lows

Community

WunderPhotos

Upload Photos

1,956,702 photos uploaded!

WunderBlog® & News

Nearby

Air Quality

  Air Quality AQ Index Pollutant
Not available.

Snow Depth

Station Depth Elevation

Earthquake Activity

City Distance Mag. Time & Date
Minimum magnitude displayed is 2.5.

Coastal Water Temperatures

Place Temperature

Stations

Nearby Weather Stations

Station Location Temp. Windchill Dew Point Humidity Wind Precip. Elev Updated Type
                   

Watches & Warnings

Dense Fog Advisory
Issued: 7:33 PM PST Dec. 10, 2016 – National Weather Service

... Dense fog advisory in effect until 8 am MST /7 am PST/
Sunday...

The National Weather Service in Boise has issued a dense fog
advisory... which is in effect until 8 am MST /7 am PST/ Sunday.

* Visibility... one quarter mile or less

* timing... through 8 am Sunday

* impacts... travel may become hazardous as the reduction in
visibility may be sudden.

Precautionary/preparedness actions...

A dense fog advisory means visibilities will frequently be
reduced to less than one quarter mile. If driving... slow down...
use your headlights... and leave plenty of distance ahead of you.